createdAt,value
2018-05-31T00:00:38.156Z,4.00
2018-05-31T00:01:38.182Z,4.00
2018-05-31T00:02:38.358Z,4.00
2018-05-31T00:03:38.236Z,8.00
2018-05-31T00:04:38.260Z,4.00
2018-05-31T00:05:38.287Z,4.00
2018-05-31T00:06:38.314Z,4.00
2018-05-31T00:07:38.340Z,4.00
2018-05-31T00:08:38.368Z,4.00
2018-05-31T00:09:38.391Z,4.00
2018-05-31T00:10:38.419Z,8.00
2018-05-31T00:11:38.444Z,4.00
2018-05-31T00:12:38.468Z,8.00
2018-05-31T00:13:38.495Z,8.00
2018-05-31T00:14:38.521Z,8.00
2018-05-31T00:15:38.597Z,8.00
2018-05-31T00:16:38.572Z,8.00
2018-05-31T00:17:38.599Z,4.00
2018-05-31T00:18:38.625Z,8.00
2018-05-31T00:19:38.651Z,4.00
2018-05-31T00:20:38.878Z,8.00
2018-05-31T00:21:38.702Z,8.00
2018-05-31T00:22:38.729Z,8.00
2018-05-31T00:23:38.910Z,8.00
2018-05-31T00:24:38.780Z,4.00
2018-05-31T00:25:38.819Z,4.00
2018-05-31T00:26:38.904Z,4.00
2018-05-31T00:27:38.858Z,4.00
2018-05-31T00:28:38.885Z,4.00
2018-05-31T00:29:38.910Z,4.00
2018-05-31T00:30:38.937Z,4.00
2018-05-31T00:31:38.964Z,4.00
2018-05-31T00:32:38.988Z,4.00
2018-05-31T00:33:39.013Z,4.00
2018-05-31T00:34:39.043Z,4.00
2018-05-31T00:35:39.066Z,4.00
2018-05-31T00:36:39.091Z,4.00
2018-05-31T00:37:39.118Z,4.00
2018-05-31T00:38:39.143Z,4.00
2018-05-31T00:39:39.171Z,4.00
2018-05-31T00:40:39.194Z,4.00
2018-05-31T00:41:39.222Z,4.00
2018-05-31T00:42:39.247Z,4.00
2018-05-31T00:43:39.273Z,4.00
2018-05-31T00:44:39.299Z,4.00
2018-05-31T00:45:39.324Z,4.00
2018-05-31T00:46:39.351Z,4.00
2018-05-31T00:47:39.376Z,4.00
2018-05-31T00:48:39.402Z,4.00
2018-05-31T00:49:39.429Z,4.00
2018-05-31T00:50:39.454Z,4.00
2018-05-31T00:51:39.480Z,4.00
2018-05-31T00:52:39.505Z,4.00
2018-05-31T00:53:39.532Z,4.00
2018-05-31T00:54:39.557Z,4.00
2018-05-31T00:55:39.584Z,4.00
2018-05-31T00:56:39.610Z,4.00
2018-05-31T00:57:39.641Z,4.00
2018-05-31T00:58:39.662Z,4.00
2018-05-31T00:59:39.686Z,4.00
2018-05-31T01:00:39.715Z,4.00
2018-05-31T01:01:39.739Z,4.00
2018-05-31T01:02:39.764Z,4.00
2018-05-31T01:03:39.791Z,4.00
2018-05-31T01:04:39.817Z,4.00
2018-05-31T01:05:39.842Z,4.00
2018-05-31T01:06:39.867Z,4.00
2018-05-31T01:07:39.895Z,4.00
2018-05-31T01:08:39.920Z,4.00
2018-05-31T01:09:39.948Z,4.00
2018-05-31T01:10:39.975Z,4.00
2018-05-31T01:11:39.997Z,4.00
2018-05-31T01:12:40.023Z,4.00
2018-05-31T01:13:40.047Z,4.00
2018-05-31T01:14:40.074Z,4.00
2018-05-31T01:15:40.100Z,4.00
2018-05-31T01:16:40.126Z,4.00
2018-05-31T01:17:40.150Z,4.00
2018-05-31T01:18:40.176Z,4.00
2018-05-31T01:19:40.203Z,4.00
2018-05-31T01:20:40.228Z,4.00
2018-05-31T01:21:40.253Z,4.00
2018-05-31T01:22:40.279Z,4.00
2018-05-31T01:23:40.305Z,4.00
2018-05-31T01:24:40.331Z,4.00
2018-05-31T01:25:40.357Z,4.00
2018-05-31T01:26:40.382Z,4.00
2018-05-31T01:27:40.408Z,4.00
2018-05-31T01:28:40.435Z,4.00
2018-05-31T01:29:40.459Z,4.00
2018-05-31T01:30:40.485Z,4.00
2018-05-31T01:31:40.512Z,4.00
2018-05-31T01:32:40.537Z,4.00
2018-05-31T01:33:40.566Z,4.00
2018-05-31T01:34:40.589Z,4.00
2018-05-31T01:35:40.616Z,4.00
2018-05-31T01:36:40.642Z,4.00
2018-05-31T01:37:40.665Z,4.00
2018-05-31T01:38:40.693Z,4.00
2018-05-31T01:39:40.720Z,4.00
2018-05-31T01:40:40.743Z,4.00
2018-05-31T01:41:40.769Z,4.00
2018-05-31T01:42:40.795Z,4.00
2018-05-31T01:43:40.821Z,4.00
2018-05-31T01:44:40.846Z,4.00
2018-05-31T01:45:40.872Z,4.00
2018-05-31T01:46:40.898Z,4.00
2018-05-31T01:47:40.924Z,4.00
2018-05-31T01:48:40.950Z,4.00
2018-05-31T01:49:40.974Z,4.00
2018-05-31T01:50:41.000Z,4.00
2018-05-31T01:51:41.026Z,4.00
2018-05-31T01:52:41.051Z,4.00
2018-05-31T01:53:41.083Z,4.00
2018-05-31T01:54:41.103Z,4.00
2018-05-31T01:55:41.131Z,4.00
2018-05-31T01:56:41.154Z,4.00
2018-05-31T01:57:41.181Z,4.00
2018-05-31T01:58:41.206Z,4.00
2018-05-31T01:59:41.232Z,4.00
2018-05-31T02:00:41.257Z,4.00
2018-05-31T02:01:41.282Z,4.00
2018-05-31T02:02:41.309Z,4.00
2018-05-31T02:03:41.334Z,4.00
2018-05-31T02:04:41.360Z,4.00
2018-05-31T02:05:41.386Z,4.00
2018-05-31T02:06:41.411Z,4.00
2018-05-31T02:07:41.436Z,4.00
2018-05-31T02:08:41.461Z,4.00
2018-05-31T02:09:41.488Z,4.00
2018-05-31T02:10:41.515Z,4.00
2018-05-31T02:11:41.540Z,4.00
2018-05-31T02:12:41.565Z,4.00
2018-05-31T02:13:41.590Z,4.00
2018-05-31T02:14:41.615Z,4.00
2018-05-31T02:15:41.642Z,4.00
2018-05-31T02:16:41.666Z,4.00
2018-05-31T02:17:41.692Z,4.00
2018-05-31T02:18:41.717Z,4.00
2018-05-31T02:19:41.743Z,4.00
2018-05-31T02:20:41.769Z,4.00
2018-05-31T02:21:41.793Z,4.00
2018-05-31T02:22:41.824Z,4.00
2018-05-31T02:23:41.996Z,4.00
2018-05-31T02:24:41.870Z,8.00
2018-05-31T02:25:41.896Z,8.00
2018-05-31T02:26:41.921Z,8.00
2018-05-31T02:27:41.947Z,8.00
2018-05-31T02:28:41.972Z,8.00
2018-05-31T02:29:41.998Z,8.00
2018-05-31T02:30:42.023Z,8.00
2018-05-31T02:31:42.050Z,4.00
2018-05-31T02:32:42.073Z,4.00
2018-05-31T02:33:42.099Z,4.00
2018-05-31T02:34:42.124Z,4.00
2018-05-31T02:35:42.151Z,4.00
2018-05-31T02:36:42.175Z,8.00
2018-05-31T02:37:42.200Z,8.00
2018-05-31T02:38:42.225Z,8.00
2018-05-31T02:39:42.252Z,8.00
2018-05-31T02:40:42.278Z,8.00
2018-05-31T02:41:42.301Z,8.00
2018-05-31T02:42:42.325Z,8.00
2018-05-31T02:43:42.351Z,12.00
2018-05-31T02:44:42.376Z,8.00
2018-05-31T02:45:42.405Z,12.00
2018-05-31T02:46:42.427Z,8.00
2018-05-31T02:47:42.451Z,12.00
2018-05-31T02:48:42.477Z,12.00
2018-05-31T02:49:42.502Z,12.00
2018-05-31T02:50:42.528Z,12.00
2018-05-31T02:51:42.553Z,12.00
2018-05-31T02:52:42.577Z,16.00
2018-05-31T02:53:42.603Z,16.00
2018-05-31T02:54:42.778Z,20.00
2018-05-31T02:55:42.659Z,16.00
2018-05-31T02:56:42.679Z,16.00
2018-05-31T02:57:42.703Z,16.00
2018-05-31T02:58:42.728Z,20.00
2018-05-31T02:59:42.753Z,24.00
2018-05-31T03:00:42.777Z,28.00
2018-05-31T03:01:42.804Z,32.00
2018-05-31T03:02:42.832Z,32.00
2018-05-31T03:03:42.854Z,36.00
2018-05-31T03:04:42.879Z,40.00
2018-05-31T03:05:42.904Z,44.00
2018-05-31T03:06:42.929Z,48.00
2018-05-31T03:07:43.106Z,56.00
2018-05-31T03:08:42.980Z,60.00
2018-05-31T03:09:43.004Z,60.00
2018-05-31T03:10:43.029Z,68.00
2018-05-31T03:11:43.056Z,72.00
2018-05-31T03:12:43.080Z,80.00
2018-05-31T03:13:43.104Z,84.00
2018-05-31T03:14:43.130Z,92.00
2018-05-31T03:15:43.156Z,100.00
2018-05-31T03:16:43.181Z,112.00
2018-05-31T03:17:43.206Z,120.00
2018-05-31T03:18:43.231Z,132.00
2018-05-31T03:19:43.257Z,136.00
2018-05-31T03:20:43.282Z,148.00
2018-05-31T03:21:43.457Z,160.00
2018-05-31T03:22:43.331Z,168.00
2018-05-31T03:23:43.358Z,180.00
2018-05-31T03:24:43.382Z,196.00
2018-05-31T03:25:43.407Z,208.00
2018-05-31T03:26:43.433Z,220.00
2018-05-31T03:27:43.459Z,236.00
2018-05-31T03:28:43.482Z,256.00
2018-05-31T03:29:43.508Z,272.00
2018-05-31T03:30:43.535Z,288.00
2018-05-31T03:31:43.559Z,308.00
2018-05-31T03:32:43.582Z,328.00
2018-05-31T03:33:43.609Z,348.00
2018-05-31T03:34:43.633Z,368.00
2018-05-31T03:35:43.660Z,388.00
2018-05-31T03:36:43.683Z,408.00
2018-05-31T03:37:43.708Z,432.00
2018-05-31T03:38:43.733Z,452.00
2018-05-31T03:39:43.761Z,480.00
2018-05-31T03:40:43.787Z,500.00
2018-05-31T03:41:43.808Z,528.00
2018-05-31T03:42:43.834Z,552.00
2018-05-31T03:43:43.858Z,580.00
2018-05-31T03:44:43.882Z,604.00
2018-05-31T03:45:43.908Z,632.00
2018-05-31T03:46:43.934Z,656.00
2018-05-31T03:47:43.959Z,684.00
2018-05-31T03:48:43.982Z,704.00
2018-05-31T03:49:44.008Z,728.00
2018-05-31T03:50:44.033Z,748.00
2018-05-31T03:51:44.058Z,768.00
2018-05-31T03:52:44.085Z,788.00
2018-05-31T03:53:44.107Z,804.00
2018-05-31T03:54:44.133Z,820.00
2018-05-31T03:55:44.158Z,832.00
2018-05-31T03:56:44.183Z,848.00
2018-05-31T03:57:44.209Z,856.00
2018-05-31T03:58:44.233Z,868.00
2018-05-31T03:59:44.259Z,876.00
2018-05-31T04:00:44.282Z,876.00
2018-05-31T04:01:44.307Z,880.00
2018-05-31T04:02:44.332Z,888.00
2018-05-31T04:03:44.360Z,904.00
2018-05-31T04:04:44.382Z,912.00
2018-05-31T04:05:44.408Z,924.00
2018-05-31T04:06:44.432Z,936.00
2018-05-31T04:07:44.459Z,956.00
2018-05-31T04:08:44.482Z,980.00
2018-05-31T04:09:44.507Z,1004.00
2018-05-31T04:10:44.532Z,1036.00
2018-05-31T04:11:44.558Z,1068.00
2018-05-31T04:12:44.581Z,1100.00
2018-05-31T04:13:44.607Z,1136.00
2018-05-31T04:14:44.632Z,1180.00
2018-05-31T04:15:44.809Z,1220.00
2018-05-31T04:16:44.681Z,1256.00
2018-05-31T04:17:44.709Z,1304.00
2018-05-31T04:18:44.732Z,1356.00
2018-05-31T04:19:44.759Z,1404.00
2018-05-31T04:20:44.782Z,1452.00
2018-05-31T04:21:44.807Z,1496.00
2018-05-31T04:22:44.835Z,1544.00
2018-05-31T04:23:44.858Z,1588.00
2018-05-31T04:24:44.883Z,1628.00
2018-05-31T04:25:44.909Z,1668.00
2018-05-31T04:26:44.934Z,1696.00
2018-05-31T04:27:44.959Z,1728.00
2018-05-31T04:28:44.988Z,1764.00
2018-05-31T04:29:45.009Z,1808.00
2018-05-31T04:30:45.036Z,1860.00
2018-05-31T04:31:45.063Z,1912.00
2018-05-31T04:32:45.084Z,1960.00
2018-05-31T04:33:45.127Z,1996.00
2018-05-31T04:34:45.135Z,2032.00
2018-05-31T04:35:45.161Z,2056.00
2018-05-31T04:36:45.186Z,2072.00
2018-05-31T04:37:45.211Z,2100.00
2018-05-31T04:38:45.286Z,2132.00
2018-05-31T04:39:45.262Z,2156.00
2018-05-31T04:40:45.287Z,2204.00
2018-05-31T04:41:45.312Z,2260.00
2018-05-31T04:42:45.338Z,2308.00
2018-05-31T04:43:45.363Z,2348.00
2018-05-31T04:44:45.390Z,2356.00
2018-05-31T04:45:45.415Z,2348.00
2018-05-31T04:46:45.440Z,2340.00
2018-05-31T04:47:45.465Z,2336.00
2018-05-31T04:48:45.491Z,2340.00
2018-05-31T04:49:45.517Z,2348.00
2018-05-31T04:50:45.541Z,2344.00
2018-05-31T04:51:45.576Z,2360.00
2018-05-31T04:52:45.594Z,2348.00
2018-05-31T04:53:45.618Z,2328.00
2018-05-31T04:54:45.644Z,2308.00
2018-05-31T04:55:45.670Z,2316.00
2018-05-31T04:56:45.695Z,2392.00
2018-05-31T04:57:45.721Z,2456.00
2018-05-31T04:58:45.748Z,2492.00
2018-05-31T04:59:45.772Z,2524.00
2018-05-31T05:00:45.798Z,2544.00
2018-05-31T05:01:45.824Z,2560.00
2018-05-31T05:02:45.849Z,2588.00
2018-05-31T05:03:45.877Z,2640.00
2018-05-31T05:04:45.899Z,2692.00
2018-05-31T05:05:45.925Z,2748.00
2018-05-31T05:06:45.951Z,2784.00
2018-05-31T05:07:45.978Z,2820.00
2018-05-31T05:08:46.003Z,2888.00
2018-05-31T05:09:46.029Z,2976.00
2018-05-31T05:10:46.055Z,3064.00
2018-05-31T05:11:46.081Z,3156.00
2018-05-31T05:12:46.356Z,3256.00
2018-05-31T05:13:46.131Z,3336.00
2018-05-31T05:14:46.157Z,3448.00
2018-05-31T05:15:46.183Z,3640.00
2018-05-31T05:16:46.210Z,3828.00
2018-05-31T05:17:46.236Z,3996.00
2018-05-31T05:18:46.261Z,4176.00
2018-05-31T05:19:46.288Z,4336.00
2018-05-31T05:20:46.313Z,4468.00
2018-05-31T05:21:46.349Z,4528.00
2018-05-31T05:22:46.370Z,4536.00
2018-05-31T05:23:46.391Z,4524.00
2018-05-31T05:24:46.416Z,4508.00
2018-05-31T05:25:46.442Z,4484.00
2018-05-31T05:26:46.470Z,4492.00
2018-05-31T05:27:46.495Z,4488.00
2018-05-31T05:28:46.520Z,4500.00
2018-05-31T05:29:46.553Z,4472.00
2018-05-31T05:30:46.574Z,4484.00
2018-05-31T05:31:46.600Z,4476.00
2018-05-31T05:32:46.626Z,4420.00
2018-05-31T05:33:46.653Z,4344.00
2018-05-31T05:34:46.679Z,4312.00
2018-05-31T05:35:46.706Z,4260.00
2018-05-31T05:36:46.732Z,4196.00
2018-05-31T05:37:46.808Z,4132.00
2018-05-31T05:38:46.786Z,4168.00
2018-05-31T05:39:46.811Z,4224.00
2018-05-31T05:40:46.840Z,4180.00
2018-05-31T05:41:46.864Z,4204.00
2018-05-31T05:42:46.892Z,4260.00
2018-05-31T05:43:46.919Z,4400.00
2018-05-31T05:44:46.943Z,4528.00
2018-05-31T05:45:46.970Z,4604.00
2018-05-31T05:46:46.997Z,4656.00
2018-05-31T05:47:47.024Z,4620.00
2018-05-31T05:48:47.050Z,4636.00
2018-05-31T05:49:47.078Z,4632.00
2018-05-31T05:50:47.105Z,4624.00
2018-05-31T05:51:47.133Z,4632.00
2018-05-31T05:52:47.160Z,4656.00
2018-05-31T05:53:47.186Z,4588.00
2018-05-31T05:54:47.214Z,4624.00
2018-05-31T05:55:47.242Z,4612.00
2018-05-31T05:56:47.268Z,4620.00
2018-05-31T05:57:47.295Z,4664.00
2018-05-31T05:58:47.323Z,4680.00
2018-05-31T05:59:47.350Z,4740.00
2018-05-31T06:00:47.378Z,4784.00
2018-05-31T06:01:47.426Z,4808.00
2018-05-31T06:02:47.434Z,4832.00
2018-05-31T06:03:47.462Z,4860.00
2018-05-31T06:04:47.489Z,4900.00
2018-05-31T06:05:47.517Z,4944.00
2018-05-31T06:06:47.545Z,4976.00
2018-05-31T06:07:47.583Z,4996.00
2018-05-31T06:08:47.651Z,4972.00
2018-05-31T06:09:47.630Z,4972.00
2018-05-31T06:10:47.657Z,4976.00
2018-05-31T06:11:47.687Z,5008.00
2018-05-31T06:12:47.714Z,5064.00
2018-05-31T06:13:47.745Z,5168.00
2018-05-31T06:14:47.771Z,5232.00
2018-05-31T06:15:47.801Z,5236.00
2018-05-31T06:16:47.828Z,5148.00
2018-05-31T06:17:47.858Z,5112.00
2018-05-31T06:18:47.886Z,5076.00
2018-05-31T06:19:47.953Z,5048.00
2018-05-31T06:20:47.943Z,4904.00
2018-05-31T06:21:47.972Z,5096.00
2018-05-31T06:22:48.001Z,5220.00
2018-05-31T06:23:48.030Z,5228.00
2018-05-31T06:24:48.057Z,5276.00
2018-05-31T06:25:48.087Z,5340.00
2018-05-31T06:26:48.119Z,5376.00
2018-05-31T06:27:48.145Z,5228.00
2018-05-31T06:28:48.174Z,5420.00
2018-05-31T06:29:48.203Z,5420.00
2018-05-31T06:30:48.235Z,5400.00
2018-05-31T06:31:48.265Z,5312.00
2018-05-31T06:32:48.290Z,5308.00
2018-05-31T06:33:48.320Z,5356.00
2018-05-31T06:34:48.350Z,5312.00
2018-05-31T06:35:48.380Z,5208.00
2018-05-31T06:36:48.408Z,5016.00
2018-05-31T06:37:48.437Z,4816.00
2018-05-31T06:38:48.469Z,4836.00
2018-05-31T06:39:48.497Z,4840.00
2018-05-31T06:40:48.527Z,4844.00
2018-05-31T06:41:48.557Z,4788.00
2018-05-31T06:42:48.585Z,4792.00
2018-05-31T06:43:48.615Z,4820.00
2018-05-31T06:44:48.649Z,4780.00
2018-05-31T06:45:48.778Z,4940.00
2018-05-31T06:46:48.704Z,5188.00
2018-05-31T06:47:48.735Z,5296.00
2018-05-31T06:48:48.761Z,5460.00
2018-05-31T06:49:48.792Z,5736.00
2018-05-31T06:50:48.821Z,5964.00
2018-05-31T06:51:48.851Z,6008.00
2018-05-31T06:52:48.879Z,6140.00
2018-05-31T06:53:48.910Z,6272.00
2018-05-31T06:54:48.938Z,6384.00
2018-05-31T06:55:48.968Z,6428.00
2018-05-31T06:56:48.998Z,6472.00
2018-05-31T06:57:49.027Z,6544.00
2018-05-31T06:58:49.056Z,6572.00
2018-05-31T06:59:49.087Z,6440.00
2018-05-31T07:00:49.178Z,6452.00
2018-05-31T07:01:49.148Z,6372.00
2018-05-31T07:02:49.175Z,6336.00
2018-05-31T07:03:49.206Z,6428.00
2018-05-31T07:04:49.235Z,6432.00
2018-05-31T07:05:49.264Z,6392.00
2018-05-31T07:06:49.307Z,6348.00
2018-05-31T07:07:49.330Z,6312.00
2018-05-31T07:08:49.359Z,6452.00
2018-05-31T07:09:49.393Z,6340.00
2018-05-31T07:10:49.415Z,6332.00
2018-05-31T07:11:49.445Z,6216.00
2018-05-31T07:12:49.475Z,6232.00
2018-05-31T07:13:49.505Z,6392.00
2018-05-31T07:14:49.535Z,6588.00
2018-05-31T07:15:49.582Z,6560.00
2018-05-31T07:16:49.596Z,6360.00
2018-05-31T07:17:49.627Z,6432.00
2018-05-31T07:18:49.657Z,6456.00
2018-05-31T07:19:49.687Z,6620.00
2018-05-31T07:20:49.717Z,6520.00
2018-05-31T07:21:49.780Z,6536.00
2018-05-31T07:22:49.779Z,6584.00
2018-05-31T07:23:49.810Z,6592.00
2018-05-31T07:24:49.839Z,6584.00
2018-05-31T07:25:49.871Z,6532.00
2018-05-31T07:26:49.902Z,6392.00
2018-05-31T07:27:49.932Z,6068.00
2018-05-31T07:28:49.962Z,5836.00
2018-05-31T07:29:49.994Z,5688.00
2018-05-31T07:30:50.024Z,5696.00
2018-05-31T07:31:50.055Z,5696.00
2018-05-31T07:32:50.085Z,5680.00
2018-05-31T07:33:50.117Z,5624.00
2018-05-31T07:34:50.147Z,5432.00
2018-05-31T07:35:50.179Z,5408.00
2018-05-31T07:36:50.208Z,5440.00
2018-05-31T07:37:50.240Z,5544.00
2018-05-31T07:38:50.270Z,5520.00
2018-05-31T07:39:50.301Z,5528.00
2018-05-31T07:40:50.332Z,5452.00
2018-05-31T07:41:50.362Z,5560.00
2018-05-31T07:42:50.393Z,5500.00
2018-05-31T07:43:50.424Z,5592.00
2018-05-31T07:44:50.453Z,5700.00
2018-05-31T07:45:50.485Z,5768.00
2018-05-31T07:46:50.516Z,5804.00
2018-05-31T07:47:50.546Z,5828.00
2018-05-31T07:48:50.576Z,5820.00
2018-05-31T07:49:50.606Z,5892.00
2018-05-31T07:50:50.637Z,5832.00
2018-05-31T07:51:50.668Z,5820.00
2018-05-31T07:52:50.697Z,5860.00
2018-05-31T07:53:50.727Z,5804.00
2018-05-31T07:54:50.758Z,5768.00
2018-05-31T07:55:50.788Z,5732.00
2018-05-31T07:56:50.818Z,5480.00
2018-05-31T07:57:50.848Z,5440.00
2018-05-31T07:58:50.879Z,4808.00
2018-05-31T07:59:50.909Z,5012.00
2018-05-31T08:00:50.938Z,4648.00
2018-05-31T08:01:50.968Z,4224.00
2018-05-31T08:02:50.998Z,4360.00
2018-05-31T08:03:51.030Z,4276.00
2018-05-31T08:04:51.058Z,4316.00
2018-05-31T08:05:51.139Z,4568.00
2018-05-31T08:06:51.119Z,4816.00
2018-05-31T08:07:51.148Z,5348.00
2018-05-31T08:08:51.177Z,5508.00
2018-05-31T08:09:51.207Z,5760.00
2018-05-31T08:10:51.237Z,6048.00
2018-05-31T08:11:51.269Z,6028.00
2018-05-31T08:12:51.297Z,6096.00
2018-05-31T08:13:51.327Z,6152.00
2018-05-31T08:14:51.357Z,6172.00
2018-05-31T08:15:51.388Z,6148.00
2018-05-31T08:16:51.417Z,6200.00
2018-05-31T08:17:51.445Z,6220.00
2018-05-31T08:18:51.476Z,6348.00
2018-05-31T08:19:51.505Z,6408.00
2018-05-31T08:20:51.534Z,6436.00
2018-05-31T08:21:51.767Z,6604.00
2018-05-31T08:22:51.595Z,6652.00
2018-05-31T08:23:51.624Z,6716.00
2018-05-31T08:24:51.653Z,6720.00
2018-05-31T08:25:51.683Z,6704.00
2018-05-31T08:26:51.713Z,6700.00
2018-05-31T08:27:51.745Z,6664.00
2018-05-31T08:28:51.772Z,6688.00
2018-05-31T08:29:51.802Z,6680.00
2018-05-31T08:30:51.833Z,6672.00
2018-05-31T08:31:51.864Z,6640.00
2018-05-31T08:32:51.897Z,6556.00
2018-05-31T08:33:51.921Z,6580.00
2018-05-31T08:34:51.952Z,6604.00
2018-05-31T08:35:51.983Z,6548.00
2018-05-31T08:36:52.010Z,6472.00
2018-05-31T08:37:52.041Z,6404.00
2018-05-31T08:38:52.095Z,6408.00
2018-05-31T08:39:52.103Z,6368.00
2018-05-31T08:40:52.131Z,6236.00
2018-05-31T08:41:52.160Z,6224.00
2018-05-31T08:42:52.190Z,6204.00
2018-05-31T08:43:52.221Z,6192.00
2018-05-31T08:44:52.250Z,6144.00
2018-05-31T08:45:52.279Z,6068.00
2018-05-31T08:46:52.310Z,5988.00
2018-05-31T08:47:52.340Z,5928.00
2018-05-31T08:48:52.370Z,5892.00
2018-05-31T08:49:52.400Z,5856.00
2018-05-31T08:50:52.432Z,5860.00
2018-05-31T08:51:52.460Z,5996.00
2018-05-31T08:52:52.490Z,5828.00
2018-05-31T08:53:52.519Z,5868.00
2018-05-31T08:54:52.550Z,5876.00
2018-05-31T08:55:52.580Z,5872.00
2018-05-31T08:56:52.609Z,5908.00
2018-05-31T08:57:52.641Z,5904.00
2018-05-31T08:58:52.670Z,5820.00
2018-05-31T08:59:52.702Z,5872.00
2018-05-31T09:00:52.734Z,5884.00
2018-05-31T09:01:52.762Z,5892.00
2018-05-31T09:02:52.790Z,5832.00
2018-05-31T09:03:52.822Z,5820.00
2018-05-31T09:04:52.850Z,5836.00
2018-05-31T09:05:52.879Z,5836.00
2018-05-31T09:06:52.910Z,5840.00
2018-05-31T09:07:52.941Z,5856.00
2018-05-31T09:08:52.970Z,5872.00
2018-05-31T09:09:53.000Z,5896.00
2018-05-31T09:10:53.030Z,5900.00
2018-05-31T09:11:53.060Z,5912.00
2018-05-31T09:12:53.140Z,5916.00
2018-05-31T09:13:53.120Z,6000.00
2018-05-31T09:14:53.152Z,5904.00
2018-05-31T09:15:53.182Z,5924.00
2018-05-31T09:16:53.211Z,5928.00
2018-05-31T09:17:53.242Z,5964.00
2018-05-31T09:18:53.271Z,5960.00
2018-05-31T09:19:53.301Z,6012.00
2018-05-31T09:20:53.335Z,6020.00
2018-05-31T09:21:53.382Z,6120.00
2018-05-31T09:22:53.392Z,6076.00
2018-05-31T09:23:53.422Z,6112.00
2018-05-31T09:24:53.452Z,6096.00
2018-05-31T09:25:53.486Z,6008.00
2018-05-31T09:26:53.512Z,6004.00
2018-05-31T09:27:53.543Z,6020.00
2018-05-31T09:28:53.574Z,6052.00
2018-05-31T09:29:53.604Z,6072.00
2018-05-31T09:30:53.635Z,6132.00
2018-05-31T09:31:53.666Z,6256.00
2018-05-31T09:32:53.693Z,6372.00
2018-05-31T09:33:53.724Z,6416.00
2018-05-31T09:34:53.757Z,6448.00
2018-05-31T09:35:53.788Z,6368.00
2018-05-31T09:36:53.815Z,6312.00
2018-05-31T09:37:53.846Z,6224.00
2018-05-31T09:38:53.877Z,6216.00
2018-05-31T09:39:53.909Z,6472.00
2018-05-31T09:40:53.937Z,6312.00
2018-05-31T09:41:53.967Z,6304.00
2018-05-31T09:42:53.998Z,6124.00
2018-05-31T09:43:54.029Z,6000.00
2018-05-31T09:44:54.057Z,5920.00
2018-05-31T09:45:54.089Z,5932.00
2018-05-31T09:46:54.118Z,6004.00
2018-05-31T09:47:54.154Z,6112.00
2018-05-31T09:48:54.183Z,6216.00
2018-05-31T09:49:54.210Z,6200.00
2018-05-31T09:50:54.240Z,6252.00
2018-05-31T09:51:54.274Z,6180.00
2018-05-31T09:52:54.300Z,6084.00
2018-05-31T09:53:54.330Z,6240.00
2018-05-31T09:54:54.362Z,6412.00
2018-05-31T09:55:54.391Z,6588.00
2018-05-31T09:56:54.423Z,6612.00
2018-05-31T09:57:54.451Z,6476.00
2018-05-31T09:58:54.481Z,6564.00
2018-05-31T09:59:54.512Z,6580.00
2018-05-31T10:00:54.540Z,6728.00
2018-05-31T10:01:54.575Z,6808.00
2018-05-31T10:02:54.602Z,6832.00
2018-05-31T10:03:54.632Z,6828.00
2018-05-31T10:04:54.663Z,6764.00
2018-05-31T10:05:54.692Z,6720.00
2018-05-31T10:06:54.725Z,6796.00
2018-05-31T10:07:54.752Z,6924.00
2018-05-31T10:08:54.805Z,7076.00
2018-05-31T10:09:54.815Z,7124.00
2018-05-31T10:10:54.844Z,7216.00
2018-05-31T10:11:54.874Z,5056.00
2018-05-31T10:12:54.903Z,4960.00
2018-05-31T10:13:54.934Z,4956.00
2018-05-31T10:14:54.964Z,4992.00
2018-05-31T10:15:54.997Z,5048.00
2018-05-31T10:16:55.026Z,5168.00
2018-05-31T10:17:55.056Z,6272.00
2018-05-31T10:18:55.087Z,6288.00
2018-05-31T10:19:55.118Z,6772.00
2018-05-31T10:20:55.146Z,7160.00
2018-05-31T10:21:55.178Z,7224.00
2018-05-31T10:22:55.209Z,7372.00
2018-05-31T10:23:55.239Z,7384.00
2018-05-31T10:24:55.268Z,7364.00
2018-05-31T10:25:55.299Z,5312.00
2018-05-31T10:26:55.338Z,5328.00
2018-05-31T10:27:55.361Z,5968.00
2018-05-31T10:28:55.390Z,6840.00
2018-05-31T10:29:55.421Z,7380.00
2018-05-31T10:30:55.453Z,7492.00
2018-05-31T10:31:55.483Z,7472.00
2018-05-31T10:32:55.512Z,6372.00
2018-05-31T10:33:55.543Z,5348.00
2018-05-31T10:34:55.573Z,6964.00
2018-05-31T10:35:55.604Z,7536.00
2018-05-31T10:36:55.634Z,7288.00
2018-05-31T10:37:55.663Z,7316.00
2018-05-31T10:38:55.694Z,6056.00
2018-05-31T10:39:55.726Z,6292.00
2018-05-31T10:40:55.755Z,7948.00
2018-05-31T10:41:55.785Z,8432.00
2018-05-31T10:42:55.816Z,8548.00
2018-05-31T10:43:55.848Z,8692.00
2018-05-31T10:44:55.876Z,8208.00
2018-05-31T10:45:55.907Z,7536.00
2018-05-31T10:46:55.939Z,7644.00
2018-05-31T10:47:55.968Z,7468.00
2018-05-31T10:48:55.997Z,7248.00
2018-05-31T10:49:56.028Z,7232.00
2018-05-31T10:50:56.058Z,7428.00
2018-05-31T10:51:56.093Z,6132.00
2018-05-31T10:52:56.128Z,5960.00
2018-05-31T10:53:56.150Z,5940.00
2018-05-31T10:54:56.180Z,5872.00
2018-05-31T10:55:56.219Z,5872.00
2018-05-31T10:56:56.241Z,5832.00
2018-05-31T10:57:56.271Z,5708.00
2018-05-31T10:58:56.302Z,5684.00
2018-05-31T10:59:56.333Z,5712.00
2018-05-31T11:00:56.364Z,5736.00
2018-05-31T11:01:56.394Z,5676.00
2018-05-31T11:02:56.425Z,5588.00
2018-05-31T11:03:56.456Z,5496.00
2018-05-31T11:04:57.538Z,5336.00
2018-05-31T11:05:56.517Z,5212.00
2018-05-31T11:06:56.546Z,5172.00
2018-05-31T11:07:56.577Z,5228.00
2018-05-31T11:08:56.608Z,5384.00
2018-05-31T11:09:56.637Z,6160.00
2018-05-31T11:10:56.669Z,7616.00
2018-05-31T11:11:56.702Z,7928.00
2018-05-31T11:12:56.728Z,8204.00
2018-05-31T11:13:56.793Z,8500.00
2018-05-31T11:14:56.839Z,8804.00
2018-05-31T11:15:56.822Z,9168.00
2018-05-31T11:16:56.850Z,9236.00
2018-05-31T11:17:56.882Z,8288.00
2018-05-31T11:18:56.913Z,8444.00
2018-05-31T11:19:56.943Z,8576.00
2018-05-31T11:20:56.972Z,8484.00
2018-05-31T11:21:57.003Z,8296.00
2018-05-31T11:22:57.034Z,8056.00
2018-05-31T11:23:57.065Z,7816.00
2018-05-31T11:24:57.095Z,7600.00
2018-05-31T11:25:57.126Z,7304.00
2018-05-31T11:26:57.157Z,6756.00
2018-05-31T11:27:57.191Z,6104.00
2018-05-31T11:28:57.219Z,5472.00
2018-05-31T11:29:57.248Z,5072.00
2018-05-31T11:30:57.279Z,4860.00
2018-05-31T11:31:57.311Z,4716.00
2018-05-31T11:32:57.341Z,4620.00
2018-05-31T11:33:57.371Z,4536.00
2018-05-31T11:34:57.402Z,4400.00
2018-05-31T11:35:57.433Z,4376.00
2018-05-31T11:36:57.463Z,4480.00
2018-05-31T11:37:57.494Z,4616.00
2018-05-31T11:38:57.525Z,4704.00
2018-05-31T11:39:57.555Z,4788.00
2018-05-31T11:40:57.589Z,4928.00
2018-05-31T11:41:57.616Z,4996.00
2018-05-31T11:42:57.652Z,4944.00
2018-05-31T11:43:57.679Z,4856.00
2018-05-31T11:44:57.709Z,4732.00
2018-05-31T11:45:57.739Z,4640.00
2018-05-31T11:46:57.770Z,4596.00
2018-05-31T11:47:57.800Z,4612.00
2018-05-31T11:48:57.831Z,4700.00
2018-05-31T11:49:57.861Z,4848.00
2018-05-31T11:50:57.892Z,5036.00
2018-05-31T11:51:57.923Z,5248.00
2018-05-31T11:52:57.952Z,5500.00
2018-05-31T11:53:57.983Z,5420.00
2018-05-31T11:54:58.014Z,5468.00
2018-05-31T11:55:58.045Z,5568.00
2018-05-31T11:56:58.075Z,5768.00
2018-05-31T11:57:58.105Z,6068.00
2018-05-31T11:58:58.136Z,6312.00
2018-05-31T11:59:58.168Z,6416.00
2018-05-31T12:00:58.200Z,6484.00
2018-05-31T12:01:58.227Z,6524.00
2018-05-31T12:02:58.258Z,6596.00
2018-05-31T12:03:58.343Z,6628.00
2018-05-31T12:04:58.669Z,6720.00
2018-05-31T12:05:58.349Z,6812.00
2018-05-31T12:06:58.383Z,6852.00
2018-05-31T12:07:58.410Z,6812.00
2018-05-31T12:08:58.442Z,6688.00
2018-05-31T12:09:58.471Z,6520.00
2018-05-31T12:10:58.503Z,6280.00
2018-05-31T12:11:58.532Z,6176.00
2018-05-31T12:12:58.561Z,5756.00
2018-05-31T12:13:58.596Z,5592.00
2018-05-31T12:14:58.622Z,5412.00
2018-05-31T12:15:58.653Z,5344.00
2018-05-31T12:16:58.683Z,5252.00
2018-05-31T12:17:58.719Z,5048.00
2018-05-31T12:18:58.745Z,4796.00
2018-05-31T12:19:58.778Z,4696.00
2018-05-31T12:20:58.805Z,4652.00
2018-05-31T12:21:58.842Z,5544.00
2018-05-31T12:22:58.867Z,4808.00
2018-05-31T12:23:58.897Z,4856.00
2018-05-31T12:24:58.928Z,5200.00